sensor_id;sensor_type;location;lat;lon;timestamp;P1;durP1;ratioP1;P2;durP2;ratioP2
16510;SDS011;8368;48.772;8.754;2023-12-20T00:02:13;1.10;;;1.10;;
16510;SDS011;8368;48.772;8.754;2023-12-20T00:04:39;1.10;;;1.10;;
16510;SDS011;8368;48.772;8.754;2023-12-20T00:07:04;0.80;;;0.80;;
16510;SDS011;8368;48.772;8.754;2023-12-20T00:09:30;1.33;;;0.80;;
16510;SDS011;8368;48.772;8.754;2023-12-20T00:11:55;1.20;;;0.87;;
16510;SDS011;8368;48.772;8.754;2023-12-20T00:14:21;1.00;;;1.00;;
16510;SDS011;8368;48.772;8.754;2023-12-20T00:16:47;1.13;;;1.03;;
16510;SDS011;8368;48.772;8.754;2023-12-20T00:19:12;1.47;;;1.03;;
16510;SDS011;8368;48.772;8.754;2023-12-20T00:21:38;3.03;;;1.20;;
16510;SDS011;8368;48.772;8.754;2023-12-20T00:24:04;1.00;;;1.00;;
16510;SDS011;8368;48.772;8.754;2023-12-20T00:26:29;0.90;;;0.77;;
16510;SDS011;8368;48.772;8.754;2023-12-20T00:28:55;0.87;;;0.87;;
16510;SDS011;8368;48.772;8.754;2023-12-20T00:31:21;2.00;;;0.80;;
16510;SDS011;8368;48.772;8.754;2023-12-20T00:33:46;0.90;;;0.90;;
16510;SDS011;8368;48.772;8.754;2023-12-20T00:36:12;0.70;;;0.70;;
16510;SDS011;8368;48.772;8.754;2023-12-20T00:38:37;1.30;;;1.07;;
16510;SDS011;8368;48.772;8.754;2023-12-20T00:41:03;0.90;;;0.90;;
16510;SDS011;8368;48.772;8.754;2023-12-20T00:43:28;0.77;;;0.77;;
16510;SDS011;8368;48.772;8.754;2023-12-20T00:45:54;0.50;;;0.50;;
16510;SDS011;8368;48.772;8.754;2023-12-20T00:48:20;0.50;;;0.50;;
16510;SDS011;8368;48.772;8.754;2023-12-20T00:50:46;0.50;;;0.50;;
16510;SDS011;8368;48.772;8.754;2023-12-20T00:53:11;0.27;;;0.27;;
16510;SDS011;8368;48.772;8.754;2023-12-20T00:55:37;0.30;;;0.27;;
16510;SDS011;8368;48.772;8.754;2023-12-20T00:58:02;0.37;;;0.37;;
16510;SDS011;8368;48.772;8.754;2023-12-20T01:00:28;0.40;;;0.40;;
16510;SDS011;8368;48.772;8.754;2023-12-20T01:02:54;0.40;;;0.40;;
16510;SDS011;8368;48.772;8.754;2023-12-20T01:05:19;0.33;;;0.33;;
16510;SDS011;8368;48.772;8.754;2023-12-20T01:07:48;0.20;;;0.20;;
16510;SDS011;8368;48.772;8.754;2023-12-20T01:10:13;0.20;;;0.20;;
16510;SDS011;8368;48.772;8.754;2023-12-20T01:12:39;0.30;;;0.30;;
16510;SDS011;8368;48.772;8.754;2023-12-20T01:15:05;0.23;;;0.23;;
16510;SDS011;8368;48.772;8.754;2023-12-20T01:17:30;0.30;;;0.30;;
16510;SDS011;8368;48.772;8.754;2023-12-20T01:19:56;0.17;;;0.17;;
16510;SDS011;8368;48.772;8.754;2023-12-20T01:22:22;0.50;;;0.30;;
16510;SDS011;8368;48.772;8.754;2023-12-20T01:24:48;0.20;;;0.20;;
16510;SDS011;8368;48.772;8.754;2023-12-20T01:27:13;0.30;;;0.30;;
16510;SDS011;8368;48.772;8.754;2023-12-20T01:29:39;0.33;;;0.20;;
16510;SDS011;8368;48.772;8.754;2023-12-20T01:32:04;0.30;;;0.13;;
16510;SDS011;8368;48.772;8.754;2023-12-20T01:34:30;0.50;;;0.30;;
16510;SDS011;8368;48.772;8.754;2023-12-20T01:36:55;0.30;;;0.30;;
16510;SDS011;8368;48.772;8.754;2023-12-20T01:39:21;0.30;;;0.30;;
16510;SDS011;8368;48.772;8.754;2023-12-20T01:41:46;0.10;;;0.10;;
16510;SDS011;8368;48.772;8.754;2023-12-20T01:44:12;0.20;;;0.20;;
16510;SDS011;8368;48.772;8.754;2023-12-20T01:46:37;0.20;;;0.20;;
16510;SDS011;8368;48.772;8.754;2023-12-20T01:49:03;0.30;;;0.30;;
16510;SDS011;8368;48.772;8.754;2023-12-20T01:51:29;0.20;;;0.20;;
16510;SDS011;8368;48.772;8.754;2023-12-20T01:53:55;0.83;;;0.20;;
16510;SDS011;8368;48.772;8.754;2023-12-20T01:56:24;0.27;;;0.27;;
16510;SDS011;8368;48.772;8.754;2023-12-20T01:58:50;0.20;;;0.20;;
16510;SDS011;8368;48.772;8.754;2023-12-20T02:01:16;0.10;;;0.10;;
16510;SDS011;8368;48.772;8.754;2023-12-20T02:03:42;0.10;;;0.10;;
16510;SDS011;8368;48.772;8.754;2023-12-20T02:06:07;0.10;;;0.10;;
16510;SDS011;8368;48.772;8.754;2023-12-20T02:08:34;0.63;;;0.20;;
16510;SDS011;8368;48.772;8.754;2023-12-20T02:11:00;0.40;;;0.40;;
16510;SDS011;8368;48.772;8.754;2023-12-20T02:13:26;0.17;;;0.17;;
16510;SDS011;8368;48.772;8.754;2023-12-20T02:15:52;0.10;;;0.10;;
16510;SDS011;8368;48.772;8.754;2023-12-20T02:18:19;0.13;;;0.13;;
16510;SDS011;8368;48.772;8.754;2023-12-20T02:20:44;0.10;;;0.10;;
16510;SDS011;8368;48.772;8.754;2023-12-20T02:23:10;0.10;;;0.10;;
16510;SDS011;8368;48.772;8.754;2023-12-20T02:25:35;0.13;;;0.13;;
16510;SDS011;8368;48.772;8.754;2023-12-20T02:28:02;0.10;;;0.10;;
16510;SDS011;8368;48.772;8.754;2023-12-20T02:30:28;0.10;;;0.10;;
16510;SDS011;8368;48.772;8.754;2023-12-20T02:32:54;0.10;;;0.10;;
16510;SDS011;8368;48.772;8.754;2023-12-20T02:35:20;0.10;;;0.10;;
16510;SDS011;8368;48.772;8.754;2023-12-20T02:37:45;0.10;;;0.10;;
16510;SDS011;8368;48.772;8.754;2023-12-20T02:40:11;0.10;;;0.03;;
16510;SDS011;8368;48.772;8.754;2023-12-20T02:42:36;0.20;;;0.20;;
16510;SDS011;8368;48.772;8.754;2023-12-20T02:45:02;0.10;;;0.10;;
16510;SDS011;8368;48.772;8.754;2023-12-20T02:47:28;0.30;;;0.30;;
16510;SDS011;8368;48.772;8.754;2023-12-20T02:49:55;0.10;;;0.10;;
16510;SDS011;8368;48.772;8.754;2023-12-20T02:52:21;0.20;;;0.20;;
16510;SDS011;8368;48.772;8.754;2023-12-20T02:54:47;0.10;;;0.10;;
16510;SDS011;8368;48.772;8.754;2023-12-20T02:57:13;0.10;;;0.10;;
16510;SDS011;8368;48.772;8.754;2023-12-20T02:59:38;0.10;;;0.10;;
16510;SDS011;8368;48.772;8.754;2023-12-20T03:02:04;0.10;;;0.10;;
16510;SDS011;8368;48.772;8.754;2023-12-20T03:04:29;0.20;;;0.20;;
16510;SDS011;8368;48.772;8.754;2023-12-20T03:06:55;0.10;;;0.10;;
16510;SDS011;8368;48.772;8.754;2023-12-20T03:09:20;0.20;;;0.20;;
16510;SDS011;8368;48.772;8.754;2023-12-20T03:11:46;0.20;;;0.20;;
16510;SDS011;8368;48.772;8.754;2023-12-20T03:14:11;0.17;;;0.17;;
16510;SDS011;8368;48.772;8.754;2023-12-20T03:16:37;0.10;;;0.10;;
16510;SDS011;8368;48.772;8.754;2023-12-20T03:19:02;0.10;;;0.10;;
16510;SDS011;8368;48.772;8.754;2023-12-20T03:21:28;0.10;;;0.10;;
16510;SDS011;8368;48.772;8.754;2023-12-20T03:23:54;0.10;;;0.10;;
16510;SDS011;8368;48.772;8.754;2023-12-20T03:26:19;0.00;;;0.00;;
16510;SDS011;8368;48.772;8.754;2023-12-20T03:28:45;0.20;;;0.20;;
16510;SDS011;8368;48.772;8.754;2023-12-20T03:31:10;0.10;;;0.10;;
16510;SDS011;8368;48.772;8.754;2023-12-20T03:33:36;0.93;;;0.10;;
16510;SDS011;8368;48.772;8.754;2023-12-20T03:36:01;0.10;;;0.10;;
16510;SDS011;8368;48.772;8.754;2023-12-20T03:38:27;0.10;;;0.10;;
16510;SDS011;8368;48.772;8.754;2023-12-20T03:40:52;0.10;;;0.10;;
16510;SDS011;8368;48.772;8.754;2023-12-20T03:43:18;0.30;;;0.30;;
16510;SDS011;8368;48.772;8.754;2023-12-20T03:45:43;0.10;;;0.10;;
16510;SDS011;8368;48.772;8.754;2023-12-20T03:48:09;0.13;;;0.13;;
16510;SDS011;8368;48.772;8.754;2023-12-20T03:50:35;0.07;;;0.07;;
16510;SDS011;8368;48.772;8.754;2023-12-20T03:53:00;0.10;;;0.10;;
16510;SDS011;8368;48.772;8.754;2023-12-20T03:55:26;0.10;;;0.10;;
16510;SDS011;8368;48.772;8.754;2023-12-20T03:57:52;0.10;;;0.10;;
16510;SDS011;8368;48.772;8.754;2023-12-20T04:00:17;0.10;;;0.10;;
16510;SDS011;8368;48.772;8.754;2023-12-20T04:02:43;0.20;;;0.20;;
16510;SDS011;8368;48.772;8.754;2023-12-20T04:05:09;0.47;;;0.47;;
16510;SDS011;8368;48.772;8.754;2023-12-20T04:07:35;0.50;;;0.30;;
16510;SDS011;8368;48.772;8.754;2023-12-20T04:10:01;0.10;;;0.10;;
16510;SDS011;8368;48.772;8.754;2023-12-20T04:12:28;0.10;;;0.10;;
16510;SDS011;8368;48.772;8.754;2023-12-20T04:14:53;0.20;;;0.20;;
16510;SDS011;8368;48.772;8.754;2023-12-20T04:17:19;0.40;;;0.40;;
16510;SDS011;8368;48.772;8.754;2023-12-20T04:19:47;0.10;;;0.10;;
16510;SDS011;8368;48.772;8.754;2023-12-20T04:22:13;0.10;;;0.10;;
16510;SDS011;8368;48.772;8.754;2023-12-20T04:24:38;0.10;;;0.10;;
16510;SDS011;8368;48.772;8.754;2023-12-20T04:27:04;0.10;;;0.10;;
16510;SDS011;8368;48.772;8.754;2023-12-20T04:29:29;0.10;;;0.10;;
16510;SDS011;8368;48.772;8.754;2023-12-20T04:31:55;0.10;;;0.10;;
16510;SDS011;8368;48.772;8.754;2023-12-20T04:34:21;0.27;;;0.27;;
16510;SDS011;8368;48.772;8.754;2023-12-20T04:36:48;0.20;;;0.20;;
16510;SDS011;8368;48.772;8.754;2023-12-20T04:39:13;0.20;;;0.20;;
16510;SDS011;8368;48.772;8.754;2023-12-20T04:41:40;0.20;;;0.20;;
16510;SDS011;8368;48.772;8.754;2023-12-20T04:44:05;0.20;;;0.20;;
16510;SDS011;8368;48.772;8.754;2023-12-20T04:46:31;0.30;;;0.30;;
16510;SDS011;8368;48.772;8.754;2023-12-20T04:48:57;0.20;;;0.20;;
16510;SDS011;8368;48.772;8.754;2023-12-20T04:51:22;0.20;;;0.20;;
16510;SDS011;8368;48.772;8.754;2023-12-20T04:53:48;0.10;;;0.10;;
16510;SDS011;8368;48.772;8.754;2023-12-20T04:56:13;0.20;;;0.20;;
16510;SDS011;8368;48.772;8.754;2023-12-20T04:58:39;0.27;;;0.27;;
16510;SDS011;8368;48.772;8.754;2023-12-20T05:01:08;0.20;;;0.20;;
16510;SDS011;8368;48.772;8.754;2023-12-20T05:03:34;0.10;;;0.10;;
16510;SDS011;8368;48.772;8.754;2023-12-20T05:05:59;0.23;;;0.23;;
16510;SDS011;8368;48.772;8.754;2023-12-20T05:08:25;0.33;;;0.33;;
16510;SDS011;8368;48.772;8.754;2023-12-20T05:10:56;0.17;;;0.17;;
16510;SDS011;8368;48.772;8.754;2023-12-20T05:13:22;0.30;;;0.30;;
16510;SDS011;8368;48.772;8.754;2023-12-20T05:15:47;0.20;;;0.20;;
16510;SDS011;8368;48.772;8.754;2023-12-20T05:18:13;0.30;;;0.30;;
16510;SDS011;8368;48.772;8.754;2023-12-20T05:20:39;0.20;;;0.20;;
16510;SDS011;8368;48.772;8.754;2023-12-20T05:23:05;0.30;;;0.30;;
16510;SDS011;8368;48.772;8.754;2023-12-20T05:25:31;0.50;;;0.20;;
16510;SDS011;8368;48.772;8.754;2023-12-20T05:27:56;0.30;;;0.30;;
16510;SDS011;8368;48.772;8.754;2023-12-20T05:30:22;0.40;;;0.40;;
16510;SDS011;8368;48.772;8.754;2023-12-20T05:32:47;0.43;;;0.43;;
16510;SDS011;8368;48.772;8.754;2023-12-20T05:35:13;0.30;;;0.30;;
16510;SDS011;8368;48.772;8.754;2023-12-20T05:37:39;0.97;;;0.30;;
16510;SDS011;8368;48.772;8.754;2023-12-20T05:40:04;0.40;;;0.40;;
16510;SDS011;8368;48.772;8.754;2023-12-20T05:42:30;1.13;;;1.07;;
16510;SDS011;8368;48.772;8.754;2023-12-20T05:44:56;0.50;;;0.50;;
16510;SDS011;8368;48.772;8.754;2023-12-20T05:47:21;0.50;;;0.50;;
16510;SDS011;8368;48.772;8.754;2023-12-20T05:49:47;0.30;;;0.30;;
16510;SDS011;8368;48.772;8.754;2023-12-20T05:52:12;0.40;;;0.40;;
16510;SDS011;8368;48.772;8.754;2023-12-20T05:54:38;0.47;;;0.47;;
16510;SDS011;8368;48.772;8.754;2023-12-20T05:57:03;0.30;;;0.30;;
16510;SDS011;8368;48.772;8.754;2023-12-20T05:59:29;0.40;;;0.40;;
16510;SDS011;8368;48.772;8.754;2023-12-20T06:01:55;0.30;;;0.30;;
16510;SDS011;8368;48.772;8.754;2023-12-20T06:04:20;0.30;;;0.30;;
16510;SDS011;8368;48.772;8.754;2023-12-20T06:06:46;0.40;;;0.40;;
16510;SDS011;8368;48.772;8.754;2023-12-20T06:09:12;0.20;;;0.20;;
16510;SDS011;8368;48.772;8.754;2023-12-20T06:11:37;0.40;;;0.40;;
16510;SDS011;8368;48.772;8.754;2023-12-20T06:14:03;0.50;;;0.50;;
16510;SDS011;8368;48.772;8.754;2023-12-20T06:16:28;0.77;;;0.77;;
16510;SDS011;8368;48.772;8.754;2023-12-20T06:18:54;0.20;;;0.20;;
16510;SDS011;8368;48.772;8.754;2023-12-20T06:21:19;0.43;;;0.43;;
16510;SDS011;8368;48.772;8.754;2023-12-20T06:23:45;0.43;;;0.43;;
16510;SDS011;8368;48.772;8.754;2023-12-20T06:26:10;0.20;;;0.20;;
16510;SDS011;8368;48.772;8.754;2023-12-20T06:28:36;0.60;;;0.60;;
16510;SDS011;8368;48.772;8.754;2023-12-20T06:31:01;0.30;;;0.30;;
16510;SDS011;8368;48.772;8.754;2023-12-20T06:33:28;0.40;;;0.40;;
16510;SDS011;8368;48.772;8.754;2023-12-20T06:35:54;0.63;;;0.63;;
16510;SDS011;8368;48.772;8.754;2023-12-20T06:38:20;0.47;;;0.47;;
16510;SDS011;8368;48.772;8.754;2023-12-20T06:40:45;0.80;;;0.80;;
16510;SDS011;8368;48.772;8.754;2023-12-20T06:43:12;0.60;;;0.60;;
16510;SDS011;8368;48.772;8.754;2023-12-20T06:45:38;0.50;;;0.50;;
16510;SDS011;8368;48.772;8.754;2023-12-20T06:48:04;0.70;;;0.70;;
16510;SDS011;8368;48.772;8.754;2023-12-20T06:50:30;0.80;;;0.80;;
16510;SDS011;8368;48.772;8.754;2023-12-20T06:52:55;0.90;;;0.90;;
16510;SDS011;8368;48.772;8.754;2023-12-20T06:55:21;1.30;;;1.30;;
16510;SDS011;8368;48.772;8.754;2023-12-20T06:57:46;1.40;;;1.30;;
16510;SDS011;8368;48.772;8.754;2023-12-20T07:00:12;1.77;;;1.47;;
16510;SDS011;8368;48.772;8.754;2023-12-20T07:02:38;1.60;;;1.50;;
16510;SDS011;8368;48.772;8.754;2023-12-20T07:05:03;1.43;;;1.33;;
16510;SDS011;8368;48.772;8.754;2023-12-20T07:07:29;2.03;;;1.93;;
16510;SDS011;8368;48.772;8.754;2023-12-20T07:09:55;1.90;;;1.80;;
16510;SDS011;8368;48.772;8.754;2023-12-20T07:12:20;2.50;;;2.40;;
16510;SDS011;8368;48.772;8.754;2023-12-20T07:14:46;2.47;;;2.37;;
16510;SDS011;8368;48.772;8.754;2023-12-20T07:17:12;2.63;;;2.43;;
16510;SDS011;8368;48.772;8.754;2023-12-20T07:19:39;2.90;;;2.60;;
16510;SDS011;8368;48.772;8.754;2023-12-20T07:22:05;2.23;;;2.13;;
16510;SDS011;8368;48.772;8.754;2023-12-20T07:24:31;2.60;;;2.50;;
16510;SDS011;8368;48.772;8.754;2023-12-20T07:26:57;3.80;;;2.67;;
16510;SDS011;8368;48.772;8.754;2023-12-20T07:29:24;3.47;;;2.80;;
16510;SDS011;8368;48.772;8.754;2023-12-20T07:31:50;2.57;;;2.37;;
16510;SDS011;8368;48.772;8.754;2023-12-20T07:34:17;3.00;;;2.70;;
16510;SDS011;8368;48.772;8.754;2023-12-20T07:36:43;5.00;;;2.53;;
16510;SDS011;8368;48.772;8.754;2023-12-20T07:39:08;3.07;;;2.87;;
16510;SDS011;8368;48.772;8.754;2023-12-20T07:41:34;3.37;;;2.80;;
16510;SDS011;8368;48.772;8.754;2023-12-20T07:43:59;3.03;;;2.83;;
16510;SDS011;8368;48.772;8.754;2023-12-20T07:46:25;2.70;;;2.50;;
16510;SDS011;8368;48.772;8.754;2023-12-20T07:48:50;3.13;;;2.83;;
16510;SDS011;8368;48.772;8.754;2023-12-20T07:51:16;2.77;;;2.57;;
16510;SDS011;8368;48.772;8.754;2023-12-20T07:53:42;5.23;;;2.80;;
16510;SDS011;8368;48.772;8.754;2023-12-20T07:56:17;3.20;;;3.00;;
16510;SDS011;8368;48.772;8.754;2023-12-20T07:58:43;2.93;;;2.77;;
16510;SDS011;8368;48.772;8.754;2023-12-20T08:01:10;3.53;;;3.23;;
16510;SDS011;8368;48.772;8.754;2023-12-20T08:03:36;3.20;;;2.90;;
16510;SDS011;8368;48.772;8.754;2023-12-20T08:06:02;2.87;;;2.67;;
16510;SDS011;8368;48.772;8.754;2023-12-20T08:08:28;3.30;;;3.00;;
16510;SDS011;8368;48.772;8.754;2023-12-20T08:10:53;3.93;;;2.13;;
16510;SDS011;8368;48.772;8.754;2023-12-20T08:13:19;2.43;;;2.23;;
16510;SDS011;8368;48.772;8.754;2023-12-20T08:15:44;2.00;;;1.90;;
16510;SDS011;8368;48.772;8.754;2023-12-20T08:18:10;5.53;;;2.70;;
16510;SDS011;8368;48.772;8.754;2023-12-20T08:20:35;2.03;;;1.93;;
16510;SDS011;8368;48.772;8.754;2023-12-20T08:23:01;4.90;;;2.10;;
16510;SDS011;8368;48.772;8.754;2023-12-20T08:25:26;2.20;;;2.10;;
16510;SDS011;8368;48.772;8.754;2023-12-20T08:27:52;2.00;;;1.90;;
16510;SDS011;8368;48.772;8.754;2023-12-20T08:30:18;1.97;;;1.87;;
16510;SDS011;8368;48.772;8.754;2023-12-20T08:32:46;2.43;;;2.23;;
16510;SDS011;8368;48.772;8.754;2023-12-20T08:35:15;2.37;;;2.23;;
16510;SDS011;8368;48.772;8.754;2023-12-20T08:37:41;2.57;;;2.13;;
16510;SDS011;8368;48.772;8.754;2023-12-20T08:40:06;3.17;;;2.10;;
16510;SDS011;8368;48.772;8.754;2023-12-20T08:42:32;1.93;;;1.80;;
16510;SDS011;8368;48.772;8.754;2023-12-20T08:44:58;3.40;;;1.73;;
16510;SDS011;8368;48.772;8.754;2023-12-20T08:47:23;3.20;;;1.87;;
16510;SDS011;8368;48.772;8.754;2023-12-20T08:49:49;4.47;;;1.70;;
16510;SDS011;8368;48.772;8.754;2023-12-20T08:52:15;2.80;;;1.77;;
16510;SDS011;8368;48.772;8.754;2023-12-20T08:54:41;1.80;;;1.70;;
16510;SDS011;8368;48.772;8.754;2023-12-20T08:57:06;5.07;;;1.70;;
16510;SDS011;8368;48.772;8.754;2023-12-20T08:59:32;1.43;;;1.33;;
16510;SDS011;8368;48.772;8.754;2023-12-20T09:01:58;3.63;;;1.60;;
16510;SDS011;8368;48.772;8.754;2023-12-20T09:04:24;5.43;;;1.73;;
16510;SDS011;8368;48.772;8.754;2023-12-20T09:06:50;1.67;;;1.57;;
16510;SDS011;8368;48.772;8.754;2023-12-20T09:09:15;3.33;;;1.43;;
16510;SDS011;8368;48.772;8.754;2023-12-20T09:11:41;2.23;;;1.50;;
16510;SDS011;8368;48.772;8.754;2023-12-20T09:14:07;1.40;;;1.30;;
16510;SDS011;8368;48.772;8.754;2023-12-20T09:16:32;6.70;;;1.70;;
16510;SDS011;8368;48.772;8.754;2023-12-20T09:18:58;3.33;;;1.67;;
16510;SDS011;8368;48.772;8.754;2023-12-20T09:21:24;2.87;;;1.30;;
16510;SDS011;8368;48.772;8.754;2023-12-20T09:23:49;2.07;;;1.47;;
16510;SDS011;8368;48.772;8.754;2023-12-20T09:26:15;3.20;;;1.67;;
16510;SDS011;8368;48.772;8.754;2023-12-20T09:28:40;2.57;;;1.70;;
16510;SDS011;8368;48.772;8.754;2023-12-20T09:31:06;7.50;;;1.70;;
16510;SDS011;8368;48.772;8.754;2023-12-20T09:33:32;3.53;;;1.53;;
16510;SDS011;8368;48.772;8.754;2023-12-20T09:35:58;2.53;;;1.90;;
16510;SDS011;8368;48.772;8.754;2023-12-20T09:38:24;1.43;;;1.30;;
16510;SDS011;8368;48.772;8.754;2023-12-20T09:40:49;3.07;;;1.50;;
16510;SDS011;8368;48.772;8.754;2023-12-20T09:43:15;6.33;;;1.80;;
16510;SDS011;8368;48.772;8.754;2023-12-20T09:45:45;5.40;;;1.70;;
16510;SDS011;8368;48.772;8.754;2023-12-20T09:48:13;4.70;;;1.47;;
16510;SDS011;8368;48.772;8.754;2023-12-20T09:50:41;2.60;;;1.70;;
16510;SDS011;8368;48.772;8.754;2023-12-20T09:53:10;3.87;;;1.40;;
16510;SDS011;8368;48.772;8.754;2023-12-20T09:55:39;8.20;;;1.43;;
16510;SDS011;8368;48.772;8.754;2023-12-20T09:58:06;5.73;;;1.70;;
16510;SDS011;8368;48.772;8.754;2023-12-20T10:00:33;4.10;;;1.33;;
16510;SDS011;8368;48.772;8.754;2023-12-20T10:03:00;2.20;;;1.57;;
16510;SDS011;8368;48.772;8.754;2023-12-20T10:05:27;2.20;;;1.50;;
16510;SDS011;8368;48.772;8.754;2023-12-20T10:07:56;5.53;;;1.43;;
16510;SDS011;8368;48.772;8.754;2023-12-20T10:10:22;1.60;;;1.30;;
16510;SDS011;8368;48.772;8.754;2023-12-20T10:13:04;1.50;;;1.43;;
16510;SDS011;8368;48.772;8.754;2023-12-20T10:15:32;1.43;;;1.33;;
16510;SDS011;8368;48.772;8.754;2023-12-20T10:18:04;3.67;;;1.50;;
16510;SDS011;8368;48.772;8.754;2023-12-20T10:20:30;4.40;;;1.53;;
16510;SDS011;8368;48.772;8.754;2023-12-20T10:22:56;1.67;;;1.57;;
16510;SDS011;8368;48.772;8.754;2023-12-20T10:25:25;1.43;;;1.10;;
16510;SDS011;8368;48.772;8.754;2023-12-20T10:28:13;3.60;;;1.37;;
16510;SDS011;8368;48.772;8.754;2023-12-20T10:30:38;1.20;;;1.10;;
16510;SDS011;8368;48.772;8.754;2023-12-20T10:33:05;3.40;;;1.77;;
16510;SDS011;8368;48.772;8.754;2023-12-20T10:35:32;6.70;;;1.57;;
16510;SDS011;8368;48.772;8.754;2023-12-20T10:37:58;4.30;;;1.37;;
16510;SDS011;8368;48.772;8.754;2023-12-20T10:40:34;1.67;;;1.27;;
16510;SDS011;8368;48.772;8.754;2023-12-20T10:43:01;6.80;;;1.90;;
16510;SDS011;8368;48.772;8.754;2023-12-20T10:45:27;1.33;;;1.30;;
16510;SDS011;8368;48.772;8.754;2023-12-20T10:47:53;1.27;;;1.27;;
16510;SDS011;8368;48.772;8.754;2023-12-20T10:50:19;2.47;;;1.33;;
16510;SDS011;8368;48.772;8.754;2023-12-20T10:52:45;2.50;;;1.73;;
16510;SDS011;8368;48.772;8.754;2023-12-20T10:55:12;4.53;;;1.60;;
16510;SDS011;8368;48.772;8.754;2023-12-20T10:57:38;4.87;;;1.50;;
16510;SDS011;8368;48.772;8.754;2023-12-20T11:00:05;1.60;;;1.37;;
16510;SDS011;8368;48.772;8.754;2023-12-20T11:02:35;1.20;;;1.10;;
16510;SDS011;8368;48.772;8.754;2023-12-20T11:05:10;2.97;;;1.60;;
16510;SDS011;8368;48.772;8.754;2023-12-20T11:13:35;3.27;;;1.30;;
16510;SDS011;8368;48.772;8.754;2023-12-20T11:16:09;3.40;;;1.17;;
16510;SDS011;8368;48.772;8.754;2023-12-20T11:18:40;6.10;;;1.23;;
16510;SDS011;8368;48.772;8.754;2023-12-20T11:21:06;3.07;;;1.03;;
16510;SDS011;8368;48.772;8.754;2023-12-20T11:23:32;1.93;;;1.40;;
16510;SDS011;8368;48.772;8.754;2023-12-20T11:26:01;2.17;;;1.20;;
16510;SDS011;8368;48.772;8.754;2023-12-20T11:28:28;1.63;;;1.33;;
16510;SDS011;8368;48.772;8.754;2023-12-20T11:30:55;5.27;;;1.87;;
16510;SDS011;8368;48.772;8.754;2023-12-20T11:33:26;2.93;;;1.30;;
16510;SDS011;8368;48.772;8.754;2023-12-20T11:35:56;3.77;;;1.10;;
16510;SDS011;8368;48.772;8.754;2023-12-20T11:38:22;2.10;;;1.37;;
16510;SDS011;8368;48.772;8.754;2023-12-20T11:40:49;2.53;;;1.20;;
16510;SDS011;8368;48.772;8.754;2023-12-20T11:46:04;2.43;;;1.30;;
16510;SDS011;8368;48.772;8.754;2023-12-20T11:48:30;4.70;;;1.60;;
16510;SDS011;8368;48.772;8.754;2023-12-20T11:50:56;5.33;;;1.63;;
16510;SDS011;8368;48.772;8.754;2023-12-20T11:53:22;2.33;;;1.17;;
16510;SDS011;8368;48.772;8.754;2023-12-20T11:55:48;3.03;;;1.47;;
16510;SDS011;8368;48.772;8.754;2023-12-20T11:58:14;8.67;;;2.00;;
16510;SDS011;8368;48.772;8.754;2023-12-20T12:00:41;3.57;;;1.33;;
16510;SDS011;8368;48.772;8.754;2023-12-20T12:03:08;3.60;;;1.23;;
16510;SDS011;8368;48.772;8.754;2023-12-20T12:05:34;5.03;;;1.27;;
16510;SDS011;8368;48.772;8.754;2023-12-20T12:08:00;3.97;;;1.30;;
16510;SDS011;8368;48.772;8.754;2023-12-20T12:10:26;1.67;;;1.10;;
16510;SDS011;8368;48.772;8.754;2023-12-20T12:12:51;2.43;;;1.23;;
16510;SDS011;8368;48.772;8.754;2023-12-20T12:15:17;6.20;;;2.77;;
16510;SDS011;8368;48.772;8.754;2023-12-20T12:17:43;3.23;;;1.30;;
16510;SDS011;8368;48.772;8.754;2023-12-20T12:20:08;3.83;;;1.63;;
16510;SDS011;8368;48.772;8.754;2023-12-20T12:22:35;2.43;;;1.10;;
16510;SDS011;8368;48.772;8.754;2023-12-20T12:25:11;2.70;;;1.47;;
16510;SDS011;8368;48.772;8.754;2023-12-20T12:27:39;1.47;;;1.03;;
16510;SDS011;8368;48.772;8.754;2023-12-20T12:30:05;1.90;;;1.23;;
16510;SDS011;8368;48.772;8.754;2023-12-20T12:32:32;1.07;;;1.00;;
16510;SDS011;8368;48.772;8.754;2023-12-20T12:34:58;4.43;;;1.17;;
16510;SDS011;8368;48.772;8.754;2023-12-20T12:37:23;3.83;;;1.30;;
16510;SDS011;8368;48.772;8.754;2023-12-20T12:39:49;3.43;;;1.40;;
16510;SDS011;8368;48.772;8.754;2023-12-20T12:42:15;2.13;;;1.20;;
16510;SDS011;8368;48.772;8.754;2023-12-20T12:44:40;2.63;;;1.17;;
16510;SDS011;8368;48.772;8.754;2023-12-20T12:47:06;2.87;;;0.97;;
16510;SDS011;8368;48.772;8.754;2023-12-20T12:49:32;2.57;;;1.20;;
16510;SDS011;8368;48.772;8.754;2023-12-20T12:51:57;7.17;;;1.13;;
16510;SDS011;8368;48.772;8.754;2023-12-20T12:54:23;2.17;;;1.47;;
16510;SDS011;8368;48.772;8.754;2023-12-20T12:56:49;2.00;;;1.23;;
16510;SDS011;8368;48.772;8.754;2023-12-20T12:59:15;2.53;;;2.00;;
16510;SDS011;8368;48.772;8.754;2023-12-20T13:01:41;5.70;;;1.43;;
16510;SDS011;8368;48.772;8.754;2023-12-20T13:04:06;6.67;;;1.20;;
16510;SDS011;8368;48.772;8.754;2023-12-20T13:06:36;2.17;;;1.37;;
16510;SDS011;8368;48.772;8.754;2023-12-20T13:09:02;2.57;;;1.20;;
16510;SDS011;8368;48.772;8.754;2023-12-20T13:11:29;1.73;;;1.37;;
16510;SDS011;8368;48.772;8.754;2023-12-20T13:13:56;4.07;;;1.20;;
16510;SDS011;8368;48.772;8.754;2023-12-20T13:16:22;1.37;;;0.90;;
16510;SDS011;8368;48.772;8.754;2023-12-20T13:18:49;2.10;;;1.00;;
16510;SDS011;8368;48.772;8.754;2023-12-20T13:21:15;3.37;;;1.30;;
16510;SDS011;8368;48.772;8.754;2023-12-20T13:23:41;2.07;;;1.07;;
16510;SDS011;8368;48.772;8.754;2023-12-20T13:26:07;2.50;;;1.20;;
16510;SDS011;8368;48.772;8.754;2023-12-20T13:28:33;2.20;;;1.17;;
16510;SDS011;8368;48.772;8.754;2023-12-20T13:30:58;2.00;;;1.17;;
16510;SDS011;8368;48.772;8.754;2023-12-20T13:33:24;3.00;;;1.50;;
16510;SDS011;8368;48.772;8.754;2023-12-20T13:35:50;3.80;;;1.30;;
16510;SDS011;8368;48.772;8.754;2023-12-20T13:38:16;4.37;;;1.20;;
16510;SDS011;8368;48.772;8.754;2023-12-20T13:40:41;2.27;;;1.10;;
16510;SDS011;8368;48.772;8.754;2023-12-20T13:43:07;3.30;;;1.57;;
16510;SDS011;8368;48.772;8.754;2023-12-20T13:45:32;2.47;;;0.90;;
16510;SDS011;8368;48.772;8.754;2023-12-20T13:47:58;2.60;;;1.10;;
16510;SDS011;8368;48.772;8.754;2023-12-20T13:50:24;3.20;;;1.30;;
16510;SDS011;8368;48.772;8.754;2023-12-20T13:52:49;2.03;;;1.20;;
16510;SDS011;8368;48.772;8.754;2023-12-20T13:55:15;1.53;;;1.30;;
16510;SDS011;8368;48.772;8.754;2023-12-20T13:57:41;1.13;;;1.00;;
16510;SDS011;8368;48.772;8.754;2023-12-20T14:00:07;5.83;;;1.93;;
16510;SDS011;8368;48.772;8.754;2023-12-20T14:02:39;3.53;;;1.20;;
16510;SDS011;8368;48.772;8.754;2023-12-20T14:05:05;1.20;;;1.10;;
16510;SDS011;8368;48.772;8.754;2023-12-20T14:07:31;7.00;;;1.57;;
16510;SDS011;8368;48.772;8.754;2023-12-20T14:09:57;3.00;;;1.30;;
16510;SDS011;8368;48.772;8.754;2023-12-20T14:12:24;6.50;;;1.43;;
16510;SDS011;8368;48.772;8.754;2023-12-20T14:14:50;1.90;;;1.07;;
16510;SDS011;8368;48.772;8.754;2023-12-20T14:17:16;2.43;;;1.13;;
16510;SDS011;8368;48.772;8.754;2023-12-20T14:19:43;4.00;;;1.80;;
16510;SDS011;8368;48.772;8.754;2023-12-20T14:22:08;4.10;;;1.57;;
16510;SDS011;8368;48.772;8.754;2023-12-20T14:24:34;3.23;;;1.07;;
16510;SDS011;8368;48.772;8.754;2023-12-20T14:27:01;2.17;;;1.67;;
16510;SDS011;8368;48.772;8.754;2023-12-20T14:29:26;6.63;;;2.57;;
16510;SDS011;8368;48.772;8.754;2023-12-20T14:31:52;4.13;;;1.40;;
16510;SDS011;8368;48.772;8.754;2023-12-20T14:34:17;4.10;;;2.00;;
16510;SDS011;8368;48.772;8.754;2023-12-20T14:36:43;2.17;;;1.67;;
16510;SDS011;8368;48.772;8.754;2023-12-20T14:39:09;3.97;;;1.70;;
16510;SDS011;8368;48.772;8.754;2023-12-20T14:41:37;5.03;;;1.17;;
16510;SDS011;8368;48.772;8.754;2023-12-20T14:44:04;3.97;;;1.87;;
16510;SDS011;8368;48.772;8.754;2023-12-20T14:46:30;2.63;;;1.20;;
16510;SDS011;8368;48.772;8.754;2023-12-20T14:48:56;2.27;;;1.40;;
16510;SDS011;8368;48.772;8.754;2023-12-20T14:51:21;4.53;;;1.50;;
16510;SDS011;8368;48.772;8.754;2023-12-20T14:53:47;5.57;;;2.03;;
16510;SDS011;8368;48.772;8.754;2023-12-20T14:56:13;2.73;;;1.37;;
16510;SDS011;8368;48.772;8.754;2023-12-20T14:58:38;3.13;;;1.30;;
16510;SDS011;8368;48.772;8.754;2023-12-20T15:01:04;1.33;;;1.00;;
16510;SDS011;8368;48.772;8.754;2023-12-20T15:03:32;2.07;;;1.17;;